Terminal Aerodrome Forecast
Issued by NWS

Home | Current Version | Previous Version | Text Only | Print | Product List | Glossary Off
Versions: 1 2 3 4 5 6 7 8 9 10 11 12 13 14 15 16

000
FTUS43 KTOP 141100
TAFFOE
TAF
KFOE 141122Z 1412/1512 12003KT P6SM BKN060
     FM141400 17010KT P6SM SCT050
     FM150100 16006KT P6SM BKN060=

USA.gov is the U.S. government's official web portal to all federal, state and local government web resources and services.